Latest Weather Observations for Giles*

IDW60801

Issued at 10:03 am WST Tuesday 22 September 2020 (issued every 10 minutes, with the page automatically refreshed every 10 minutes)

About weather observations | Map of weather stations | Latest weather observations for WA | Other Formats
Station Details ID: 013017 Name: GILES METEOROLOGICAL OFFICE Lat: -25.03 Lon: 128.30 Height: 598.0 m
Data from the previous 72 hours. | See also: Recent months at Giles*

* Giles observations are collected in the South Australia time zone, which includes daylight saving in the summer period. Therefore, Rain since 9am value is with respect to South Australia local time.

Date/Time
WST
Temp
°C
App
Temp
°C
Dew
Point
°C
Rel
Hum
%
Delta-T
°C
Wind Press
QNH
hPa
Press
MSL
hPa
Rain since
9am
mm
Dir  Spd
km/h
Gust
km/h
Spd
kts
Gust
kts
22/10:00am 21.3 15.9 -4.7 17 10.9 ESE 15 26 8 14 1021.3 1018.9 0.0
22/09:30am 21.9 15.8 -7.8 13 11.8 ESE 17 22 9 12 1021.6 1019.2 0.0
22/09:00am 20.9 14.9 -6.2 15 11.0 ESE 17 24 9 13 1021.9 1019.5 0.0
22/08:30am 19.9 13.9 -6.3 16 10.5 ESE 17 26 9 14 1022.1 1019.7 0.0
22/08:00am 18.7 12.4 -6.3 18 9.9 ESE 19 24 10 13 1022.1 1019.7 0.0
22/07:30am 17.7 12.1 -6.3 19 9.4 E 15 20 8 11 1021.8 1019.4 0.2
22/07:00am 15.4 9.7 -7.3 20 8.5 E 15 22 8 12 1021.4 1019.0 0.2
22/06:30am 14.2 8.9 -7.1 22 7.9 ESE 13 19 7 10 1021.0 1018.6 0.2
22/06:00am 10.1 5.5 -8.2 27 6.3 ESE 9 13 5 7 1020.5 1018.1 0.2
22/05:30am 9.9 4.5 -8.2 27 6.2 E 13 15 7 8 1020.0 1017.6 0.2
22/05:00am 9.9 4.2 -7.7 28 6.1 E 15 17 8 9 1019.7 1017.3 0.2
22/04:30am 7.9 2.4 -9.9 27 5.7 ESE 13 15 7 8 1019.4 1017.0 0.2
22/04:00am 11.0 5.6 -8.8 24 6.8 E 13 17 7 9 1018.9 1016.5 0.2
22/03:30am 11.4 6.0 -8.9 23 7.0 E 13 17 7 9 1018.5 1016.1 0.2
22/03:00am 11.0 5.5 -9.3 23 6.9 E 13 15 7 8 1018.4 1016.0 0.2
22/02:30am 11.6 6.1 -9.6 21 7.2 E 13 17 7 9 1018.4 1016.0 0.2
22/02:00am 11.3 5.8 -9.7 22 7.1 E 13 15 7 8 1018.4 1016.0 0.2
22/01:30am 12.0 6.5 -10.3 20 7.5 ESE 13 15 7 8 1018.4 1016.0 0.2
22/01:00am 12.0 6.5 -9.7 21 7.4 E 13 15 7 8 1018.5 1016.1 0.2
22/12:30am 12.3 6.8 -10.1 20 7.6 ESE 13 15 7 8 1018.5 1016.1 0.2
22/12:00am 12.8 7.3 -9.4 20 7.7 SE 13 15 7 8 1018.5 1016.1 0.2
 
Date/Time
WST
Temp
°C
App
Temp
°C
Dew
Point
°C
Rel
Hum
%
Delta-T
°C
Wind Press
QNH
hPa
Press
MSL
hPa
Rain since
9am
mm
Dir  Spd
km/h
Gust
km/h
Spd
kts
Gust
kts
21/11:30pm 13.2 7.3 -9.5 19 7.9 SSE 15 17 8 9 1018.5 1016.1 0.2
21/11:00pm 13.4 7.9 -9.6 19 8.0 SSE 13 13 7 7 1018.6 1016.2 0.2
21/10:30pm 13.4 7.9 -10.2 18 8.1 SSE 13 15 7 8 1018.7 1016.3 0.2
21/10:00pm 13.4 8.2 -10.8 17 8.2 SSE 11 13 6 7 1018.8 1016.4 0.2
21/09:30pm 13.7 8.1 -10.6 17 8.3 SSE 13 15 7 8 1018.9 1016.5 0.2
21/09:00pm 14.1 8.9 -10.7 17 8.5 SSE 11 13 6 7 1018.8 1016.4 0.2
21/08:30pm 14.8 9.6 -10.6 16 8.8 SSE 11 15 6 8 1018.8 1016.4 0.2
21/08:00pm 15.3 9.7 -10.4 16 9.0 SSE 13 13 7 7 1018.5 1016.1 0.2
21/07:30pm 15.7 10.6 -9.3 17 9.0 S 11 13 6 7 1018.3 1015.9 0.2
21/07:00pm 16.8 11.7 -9.7 15 9.6 S 11 13 6 7 1018.1 1015.7 0.2
21/06:30pm 18.3 13.1 -10.9 13 10.5 S 11 15 6 8 1017.7 1015.2 0.2
21/06:00pm 19.4 14.3 -10.0 13 10.9 S 11 17 6 9 1017.3 1014.8 0.2
21/05:30pm 20.7 14.6 -12.5 9 11.9 S 15 20 8 11 1017.0 1014.6 0.2
21/05:00pm 21.8 14.8 -15.6 7 12.8 SSW 19 26 10 14 1016.6 1014.2 0.2
21/04:30pm 22.4 15.9 -13.7 8 12.9 SSW 17 24 9 13 1016.5 1014.1 0.2
21/04:00pm 22.9 15.9 -15.0 7 13.3 SW 19 28 10 15 1016.2 1013.7 0.2
21/03:30pm 23.1 16.1 -15.0 7 13.4 SSW 19 32 10 17 1016.0 1013.5 0.2
21/03:00pm 23.5 16.3 -14.9 7 13.6 SW 20 28 11 15 1016.0 1013.5 0.2
21/02:30pm 22.9 15.8 -13.2 8 13.1 S 20 33 11 18 1016.0 1013.5 0.2
21/02:00pm 23.0 16.8 -14.5 7 13.3 SW 15 24 8 13 1016.1 1013.6 0.2
21/01:30pm 22.4 16.3 -12.8 8 12.8 WSW 15 32 8 17 1016.3 1013.9 0.2
21/01:00pm 22.7 17.3 -14.1 7 13.1 SSW 11 22 6 12 1016.6 1014.2 0.2
21/12:30pm 22.7 16.2 -14.1 7 13.1 S 17 28 9 15 1016.9 1014.5 0.2
21/12:00pm 22.7 16.1 -14.2 7 13.1 SSW 17 28 9 15 1017.3 1014.8 0.2
21/11:30am 21.4 15.9 -10.0 11 11.9 SSW 13 24 7 13 1017.7 1015.2 0.2
21/11:00am 20.6 15.7 -11.4 10 11.7 SSE 9 17 5 9 1018.1 1015.7 0.2
21/10:30am 20.2 13.4 -12.2 10 11.6 SSW 19 26 10 14 1018.3 1015.9 0.2
21/10:00am 19.8 12.9 -13.0 10 11.5 S 19 41 10 22 1018.6 1016.2 0.0
21/09:30am 19.5 12.9 -9.1 13 10.8 S 19 32 10 17 1018.9 1016.5 0.0
21/09:00am 18.6 11.5 -8.7 15 10.3 SSE 22 35 12 19 1019.1 1016.6 0.0
21/08:30am 17.7 10.1 -9.6 14 10.0 S 24 35 13 19 1019.1 1016.6 0.0
21/08:00am 17.0 8.4 -8.6 16 9.5 S 30 43 16 23 1018.9 1016.5 0.0
21/07:30am 16.5 8.3 -8.2 17 9.2 S 28 41 15 22 1018.7 1016.3 0.0
21/07:00am 15.7 9.0 -7.6 19 8.7 S 20 33 11 18 1018.4 1016.0 0.0
21/06:30am 13.7 8.3 -8.3 21 7.9 SSE 13 20 7 11 1018.0 1015.6 0.0
21/06:00am 11.6 6.2 -9.0 23 7.1 SE 13 17 7 9 1017.8 1015.4 0.0
21/05:30am 9.7 4.2 -9.1 25 6.3 SE 13 15 7 8 1017.7 1015.2 0.0
21/05:00am 9.8 4.8 -7.8 28 6.1 SE 11 15 6 8 1017.4 1014.9 0.0
21/04:30am 11.6 5.3 -10.1 21 7.3 SE 17 22 9 12 1017.1 1014.7 0.0
21/04:00am 12.0 6.5 -10.3 20 7.5 ESE 13 20 7 11 1016.9 1014.5 0.0
21/03:30am 11.7 6.2 -9.9 21 7.3 ESE 13 15 7 8 1016.6 1014.2 0.0
21/03:00am 11.3 6.6 -9.1 23 7.0 ESE 9 11 5 6 1016.4 1014.0 0.0
21/02:30am 11.8 6.7 -9.0 22 7.2 SE 11 13 6 7 1016.3 1013.9 0.0
21/02:00am 12.7 8.5 -7.5 24 7.3 SE 7 11 4 6 1016.2 1013.7 0.0
21/01:30am 14.1 9.4 -8.9 19 8.2 SSE 9 17 5 9 1016.3 1013.9 0.0
21/01:00am 15.4 8.6 -12.0 14 9.3 SSW 19 28 10 15 1016.0 1013.5 0.0
21/12:30am 15.9 8.5 -12.5 13 9.6 SSW 22 28 12 15 1015.8 1013.3 0.0
21/12:00am 16.4 9.4 -12.3 13 9.8 SSW 20 24 11 13 1015.8 1013.3 0.0
 
Date/Time
WST
Temp
°C
App
Temp
°C
Dew
Point
°C
Rel
Hum
%
Delta-T
°C
Wind Press
QNH
hPa
Press
MSL
hPa
Rain since
9am
mm
Dir  Spd
km/h
Gust
km/h
Spd
kts
Gust
kts
20/11:30pm 16.4 11.2 -10.2 15 9.5 SSW 11 15 6 8 1015.9 1013.4 0.0
20/11:00pm 16.5 11.9 -8.2 17 9.2 S 9 13 5 7 1015.9 1013.4 0.0
20/10:30pm 17.6 12.1 -9.8 14 10.0 SSW 13 19 7 10 1015.7 1013.2 0.0
20/10:00pm 17.5 12.9 -7.7 17 9.6 SSE 9 11 5 6 1015.7 1013.2 0.0
20/09:30pm 19.1 13.6 -9.6 13 10.7 SSW 13 17 7 9 1015.7 1013.2 0.0
20/09:00pm 19.8 14.3 -9.9 12 11.1 SW 13 19 7 10 1015.4 1013.0 0.0
20/08:30pm 20.9 14.6 -10.2 11 11.7 SW 17 20 9 11 1015.2 1012.8 0.0
20/08:00pm 21.9 15.2 -10.1 11 12.2 SW 19 28 10 15 1014.7 1012.2 0.0
20/07:30pm 22.2 16.7 -5.6 15 11.6 WSW 15 19 8 10 1014.3 1011.8 0.0
20/07:00pm 23.3 17.4 -5.2 14 12.1 WSW 17 26 9 14 1013.9 1011.4 0.0
20/06:30pm 23.8 19.1 -2.0 18 11.7 WSW 13 20 7 11 1013.2 1010.7 0.0
20/06:00pm 25.1 19.2 -1.1 17 12.2 WSW 20 30 11 16 1012.7 1010.2 0.0
20/05:30pm 25.7 19.9 -0.1 18 12.3 W 20 32 11 17 1012.4 1009.9 0.0
20/05:00pm 26.8 20.0 0.8 18 12.7 W 26 37 14 20 1011.8 1009.4 0.0
20/04:30pm 27.4 21.1 1.3 18 12.9 W 24 35 13 19 1011.5 1009.0 0.0
20/04:00pm 27.7 20.2 0.9 17 13.2 W 30 48 16 26 1011.2 1008.7 0.0
20/03:37pm 28.2 21.0 0.8 17 13.5 W 28 48 15 26 1011.0 1008.5 0.0
20/03:30pm 28.3 21.6 1.4 17 13.4 WNW 26 46 14 25 1011.0 1008.5 0.0
20/03:28pm 28.0 20.9 1.5 18 13.2 WNW 28 46 15 25 1011.0 1008.5 0.0
20/03:00pm 28.7 20.8 1.2 17 13.7 W 32 44 17 24 1010.9 1008.4 0.0
20/02:30pm 28.5 20.9 0.3 16 13.8 W 30 43 16 23 1010.9 1008.4 0.0
20/02:00pm 29.2 22.3 0.0 15 14.3 W 26 39 14 21 1011.1 1008.6 0.0
20/01:30pm 29.6 23.0 -0.7 14 14.7 W 24 39 13 21 1011.3 1008.8 0.0
20/01:00pm 29.2 22.4 -1.8 13 14.7 WSW 24 41 13 22 1011.8 1009.4 0.0
20/12:35pm 28.5 20.8 -2.7 13 14.5 WSW 28 46 15 25 1012.1 1009.6 0.0
20/12:30pm 28.3 20.9 -3.3 12 14.5 WSW 26 46 14 25 1012.2 1009.7 0.0
20/12:00pm 28.9 21.7 -5.2 10 15.2 WSW 24 43 13 23 1012.3 1009.8 0.0
20/11:30am 27.9 21.5 -4.5 11 14.5 WSW 20 35 11 19 1012.8 1010.3 0.0
20/11:00am 27.6 20.0 -5.4 11 14.5 W 26 41 14 22 1013.1 1010.6 0.0
20/10:30am 27.3 20.8 -6.4 10 14.5 WSW 20 33 11 18 1013.4 1011.0 0.0
20/10:00am 26.9 20.6 -5.4 11 14.1 WSW 19 33 10 18 1013.8 1011.3 0.0
20/09:30am 26.3 19.5 -5.6 12 13.8 SW 22 30 12 16 1013.9 1011.4 0.0
20/09:00am 25.7 18.7 -7.5 10 13.8 SW 22 30 12 16 1014.1 1011.6 0.0
20/08:30am 25.4 18.2 -9.2 9 13.9 SW 22 32 12 17 1014.0 1011.5 0.0
20/08:00am 24.7 17.9 -9.0 10 13.5 SW 20 28 11 15 1014.0 1011.5 0.0
20/07:30am 23.3 16.8 -7.4 12 12.5 SW 19 26 10 14 1013.9 1011.4 0.0
20/07:00am 22.2 16.3 -5.6 15 11.6 WSW 17 22 9 12 1013.5 1011.1 0.0
20/06:30am 21.8 16.2 -3.2 18 10.9 WSW 17 24 9 13 1013.2 1010.7 0.0
20/06:00am 21.3 16.2 -1.8 21 10.3 W 15 22 8 12 1012.8 1010.3 0.0
20/05:30am 21.0 16.0 -1.2 22 10.0 WNW 15 22 8 12 1012.2 1009.7 0.0
20/05:00am 20.9 16.3 -1.4 22 10.0 NW 13 19 7 10 1011.8 1009.4 0.0
20/04:30am 20.5 15.3 -2.7 21 10.1 NNW 15 19 8 10 1011.6 1009.1 0.0
20/04:00am 18.7 13.4 -3.7 21 9.4 N 15 17 8 9 1011.2 1008.7 0.0
20/03:30am 20.0 13.8 -4.8 18 10.3 NW 19 24 10 13 1011.0 1008.5 0.0
20/03:00am 21.7 15.3 -5.3 16 11.3 NNW 20 24 11 13 1010.3 1007.7 0.0
20/02:30am 21.8 15.0 -5.6 15 11.4 NNW 22 28 12 15 1010.4 1007.9 0.0
20/02:00am 22.4 16.0 -5.0 15 11.6 NNW 20 28 11 15 1010.6 1008.1 0.0
20/01:30am 22.4 15.9 -5.5 15 11.7 NNW 20 26 11 14 1010.9 1008.4 0.0
20/01:00am 22.5 16.0 -6.3 14 11.9 NNW 20 26 11 14 1011.3 1008.8 0.0
20/12:30am 22.0 15.6 -6.6 14 11.7 NNW 19 24 10 13 1011.5 1009.0 0.0
20/12:00am 22.2 15.6 -7.2 13 11.9 NNW 20 26 11 14 1011.6 1009.1 0.0
 
Date/Time
WST
Temp
°C
App
Temp
°C
Dew
Point
°C
Rel
Hum
%
Delta-T
°C
Wind Press
QNH
hPa
Press
MSL
hPa
Rain since
9am
mm
Dir  Spd
km/h
Gust
km/h
Spd
kts
Gust
kts
19/11:30pm 22.6 16.2 -7.1 13 12.1 NNW 19 22 10 12 1012.0 1009.5 0.0
19/11:00pm 22.8 16.7 -7.7 12 12.3 NNW 17 20 9 11 1012.3 1009.8 0.0
19/10:30pm 22.7 16.2 -8.0 12 12.3 NNW 19 22 10 12 1012.4 1009.9 0.0
19/10:00pm 21.9 15.5 -7.0 14 11.7 NNW 19 20 10 11 1012.5 1010.0 0.0
19/09:30pm 22.7 16.6 -7.4 13 12.2 NNW 17 20 9 11 1012.5 1010.0 0.0
19/09:00pm 21.5 15.8 -7.0 14 11.5 NNW 15 19 8 10 1012.6 1010.1 0.0
19/08:30pm 21.5 16.3 -6.5 14 11.4 NW 13 17 7 9 1012.7 1010.2 0.0
19/08:00pm 21.8 16.7 -5.6 15 11.4 NNW 13 15 7 8 1012.7 1010.2 0.0
19/07:30pm 22.9 17.6 -6.8 13 12.2 NNW 13 17 7 9 1012.4 1009.9 0.0
19/07:00pm 22.8 18.1 -5.5 14 11.9 NNW 11 13 6 7 1012.1 1009.6 0.0
19/06:30pm 23.9 19.2 -5.0 14 12.4 N 11 13 6 7 1011.7 1009.2 0.0
19/06:00pm 24.7 19.9 -5.9 12 13.0 NNW 11 13 6 7 1011.4 1008.9 0.0
19/05:30pm 26.9 20.4 -7.6 10 14.5 NW 19 28 10 15 1011.3 1008.8 0.0
19/05:00pm 27.8 20.3 -9.0 8 15.2 WNW 24 30 13 16 1011.1 1008.6 0.0
19/04:30pm 28.5 21.6 -10.5 7 15.8 WNW 20 30 11 16 1011.1 1008.6 0.0
19/04:00pm 28.8 21.9 -10.0 7 15.9 NW 20 32 11 17 1011.0 1008.5 0.0
19/03:30pm 28.6 21.4 -9.3 8 15.7 WNW 22 32 12 17 1011.0 1008.5 0.0
19/03:00pm 28.6 21.5 -8.6 8 15.6 W 22 39 12 21 1011.3 1008.8 0.0
19/02:30pm 28.8 22.0 -9.3 7 15.8 WNW 20 32 11 17 1011.4 1008.9 0.0
19/02:00pm 28.3 21.1 -9.9 7 15.6 W 22 35 12 19 1011.7 1009.2 0.0
19/01:30pm 27.5 19.9 -9.5 8 15.1 WNW 24 46 13 25 1012.1 1009.6 0.0
19/01:00pm 27.3 19.8 -8.9 8 14.9 WNW 24 37 13 20 1012.6 1010.1 0.0
19/12:30pm 26.1 19.1 -7.3 10 14.0 W 22 39 12 21 1013.2 1010.7 0.0
19/12:00pm 26.2 19.6 -8.9 9 14.3 W 19 32 10 17 1013.5 1011.1 0.0
19/11:30am 24.7 17.2 -8.3 10 13.4 WNW 24 37 13 20 1014.0 1011.5 0.0
19/11:00am 25.0 18.5 -8.0 10 13.5 NW 19 33 10 18 1014.5 1012.0 0.0
19/10:30am 23.8 17.4 -4.9 14 12.3 NW 20 32 11 17 1014.7 1012.2 0.0
19/10:00am 22.7 16.7 -3.4 17 11.4 NW 19 28 10 15 1015.2 1012.8 0.0
19/09:30am 22.4 16.5 -2.3 19 11.0 NW 19 28 10 15 1015.6 1013.1 0.0
19/09:00am 21.3 15.9 -1.1 22 10.1 NNW 17 24 9 13 1015.8 1013.3 0.0

Other formats

Comma delimited format used in spreadsheet applications
http://www.bom.gov.au/fwo/IDW60801/IDW60801.94461.axf

JavaScript Object Notation format (JSON) in row-major order
http://www.bom.gov.au/fwo/IDW60801/IDW60801.94461.json

Data quality

Most of these data are generated automatically and are frequently updated. Quality checks on data are not normally performed. It is possible for incorrect values to appear. Refer to information at About Latest Weather Observations and please check the disclaimer before using these data.